createdAt,value
2018-10-03T00:00:04.685Z,12.73
2018-10-03T00:00:38.749Z,16.53
2018-10-03T00:01:12.651Z,11.93
2018-10-03T00:01:46.499Z,13.20
2018-10-03T00:02:28.193Z,10.37
2018-10-03T00:03:02.371Z,11.53
2018-10-03T00:03:36.238Z,11.63
2018-10-03T00:04:10.144Z,11.60
2018-10-03T00:04:44.327Z,14.47
2018-10-03T00:05:18.204Z,11.70
2018-10-03T00:05:52.247Z,13.87
2018-10-03T00:06:26.068Z,13.33
2018-10-03T00:06:59.850Z,18.03
2018-10-03T00:07:33.924Z,11.37
2018-10-03T00:08:07.823Z,16.20
2018-10-03T00:08:41.612Z,12.03
2018-10-03T00:09:15.352Z,13.37
2018-10-03T00:09:49.214Z,17.10
2018-10-03T00:10:23.023Z,10.93
2018-10-03T00:10:57.117Z,13.43
2018-10-03T00:11:31.119Z,13.37
2018-10-03T00:12:05.308Z,12.47
2018-10-03T00:12:39.192Z,16.23
2018-10-03T00:13:13.300Z,15.50
2018-10-03T00:13:47.116Z,13.17
2018-10-03T00:14:21.012Z,13.00
2018-10-03T00:14:54.775Z,12.70
2018-10-03T00:15:28.460Z,10.77
2018-10-03T00:16:02.700Z,15.73
2018-10-03T00:16:36.549Z,13.93
2018-10-03T00:17:10.395Z,16.47
2018-10-03T00:17:44.419Z,13.67
2018-10-03T00:18:18.109Z,11.03
2018-10-03T00:18:51.985Z,12.00
2018-10-03T00:19:25.956Z,13.50
2018-10-03T00:19:59.804Z,13.30
2018-10-03T00:20:33.623Z,11.13
2018-10-03T00:21:07.724Z,15.37
2018-10-03T00:21:41.657Z,11.70
2018-10-03T00:22:15.396Z,12.03
2018-10-03T00:22:49.327Z,13.13
2018-10-03T00:23:23.557Z,14.73
2018-10-03T00:23:57.376Z,12.17
2018-10-03T00:24:31.235Z,13.40
2018-10-03T00:25:05.719Z,14.93
2018-10-03T00:25:39.919Z,13.73
2018-10-03T00:26:13.834Z,13.87
2018-10-03T00:26:47.674Z,10.93
2018-10-03T00:27:21.569Z,14.30
2018-10-03T00:27:55.381Z,10.07
2018-10-03T00:28:29.412Z,12.23
2018-10-03T00:29:03.488Z,16.03
2018-10-03T00:29:37.764Z,12.30
2018-10-03T00:30:11.548Z,12.33
2018-10-03T00:30:45.866Z,12.30
2018-10-03T00:31:19.853Z,10.37
2018-10-03T00:31:53.663Z,13.00
2018-10-03T00:32:27.596Z,12.77
2018-10-03T00:33:01.339Z,12.27
2018-10-03T00:33:35.229Z,14.23
2018-10-03T00:34:09.194Z,14.17
2018-10-03T00:34:43.161Z,14.23
2018-10-03T00:35:17.152Z,15.17
2018-10-03T00:35:51.263Z,13.30
2018-10-03T00:36:25.294Z,13.77
2018-10-03T00:36:59.284Z,19.47
2018-10-03T00:37:32.920Z,13.00
2018-10-03T00:38:06.940Z,13.80
2018-10-03T00:38:40.869Z,12.20
2018-10-03T00:39:14.834Z,15.43
2018-10-03T00:39:48.632Z,15.30
2018-10-03T00:40:22.541Z,13.20
2018-10-03T00:40:56.294Z,15.63
2018-10-03T00:41:30.676Z,12.67
2018-10-03T00:42:05.090Z,10.00
2018-10-03T00:42:39.396Z,12.53
2018-10-03T00:43:13.455Z,11.07
2018-10-03T00:43:47.231Z,15.87
2018-10-03T00:44:21.124Z,9.77
2018-10-03T00:44:54.836Z,11.03
2018-10-03T00:45:29.018Z,10.83
2018-10-03T00:46:02.908Z,13.83
2018-10-03T00:46:43.827Z,10.40
2018-10-03T00:47:17.912Z,12.70
2018-10-03T00:47:51.880Z,13.53
2018-10-03T00:48:25.724Z,20.73
2018-10-03T00:48:59.563Z,14.23
2018-10-03T00:49:33.494Z,12.37
2018-10-03T00:50:07.800Z,13.17
2018-10-03T00:50:41.599Z,14.93
2018-10-03T00:51:15.769Z,15.70
2018-10-03T00:51:49.542Z,15.67
2018-10-03T00:52:23.444Z,10.57
2018-10-03T00:52:57.367Z,12.67
2018-10-03T00:53:31.292Z,13.33
2018-10-03T00:54:05.209Z,13.63
2018-10-03T00:54:39.284Z,16.07
2018-10-03T00:55:14.355Z,13.50
2018-10-03T00:55:48.226Z,11.80
2018-10-03T00:56:22.227Z,12.93
2018-10-03T00:56:56.113Z,17.37
2018-10-03T00:57:30.620Z,13.30
2018-10-03T00:58:04.471Z,18.70
2018-10-03T00:58:38.485Z,12.77
2018-10-03T00:59:12.427Z,9.90
2018-10-03T00:59:46.423Z,17.03
2018-10-03T01:00:20.356Z,16.93
2018-10-03T01:00:54.334Z,11.80
2018-10-03T01:01:28.339Z,12.80
2018-10-03T01:02:02.216Z,13.97
2018-10-03T01:02:35.994Z,15.67
2018-10-03T01:03:09.922Z,13.60
2018-10-03T01:03:43.762Z,15.50
2018-10-03T01:04:17.675Z,12.63
2018-10-03T01:04:51.456Z,10.80
2018-10-03T01:05:25.408Z,10.97
2018-10-03T01:05:59.372Z,13.73
2018-10-03T01:06:33.223Z,16.60
2018-10-03T01:07:07.117Z,11.83
2018-10-03T01:07:42.098Z,15.53
2018-10-03T01:08:16.275Z,10.50
2018-10-03T01:08:50.312Z,13.07
2018-10-03T01:09:24.224Z,16.37
2018-10-03T01:09:58.149Z,16.00
2018-10-03T01:10:32.354Z,15.53
2018-10-03T01:11:06.256Z,13.73
2018-10-03T01:11:40.079Z,19.03
2018-10-03T01:12:13.988Z,11.47
2018-10-03T01:12:47.862Z,17.03
2018-10-03T01:13:21.590Z,12.00
2018-10-03T01:13:55.527Z,13.47
2018-10-03T01:14:29.443Z,13.80
2018-10-03T01:15:03.458Z,16.33
2018-10-03T01:15:37.262Z,12.73
2018-10-03T01:16:10.934Z,14.40
2018-10-03T01:16:45.570Z,13.50
2018-10-03T01:17:19.431Z,14.50
2018-10-03T01:17:53.403Z,11.83
2018-10-03T01:18:27.296Z,14.30
2018-10-03T01:19:00.989Z,11.70
2018-10-03T01:19:34.888Z,13.87
2018-10-03T01:20:08.829Z,14.77
2018-10-03T01:20:42.738Z,15.77
2018-10-03T01:21:16.941Z,12.40
2018-10-03T01:21:50.689Z,13.93
2018-10-03T01:22:24.620Z,16.60
2018-10-03T01:22:58.467Z,15.27
2018-10-03T01:23:32.433Z,11.63
2018-10-03T01:24:06.518Z,12.33
2018-10-03T01:24:40.396Z,15.43
2018-10-03T01:25:14.317Z,13.20
2018-10-03T01:25:48.429Z,13.20
2018-10-03T01:26:22.154Z,17.73
2018-10-03T01:26:56.007Z,13.63
2018-10-03T01:27:30.522Z,15.77
2018-10-03T01:28:04.335Z,12.33
2018-10-03T01:28:38.175Z,16.60
2018-10-03T01:29:12.253Z,16.73
2018-10-03T01:29:46.256Z,15.60
2018-10-03T01:30:20.123Z,16.60
2018-10-03T01:30:54.160Z,19.23
2018-10-03T01:31:27.900Z,21.93
2018-10-03T01:32:01.899Z,17.50
2018-10-03T01:32:36.007Z,17.23
2018-10-03T01:33:09.779Z,14.40
2018-10-03T01:33:43.636Z,17.20
2018-10-03T01:34:18.054Z,18.07
2018-10-03T01:34:51.843Z,18.80
2018-10-03T01:35:25.795Z,15.67
2018-10-03T01:35:59.736Z,21.30
2018-10-03T01:36:33.657Z,18.40
2018-10-03T01:37:07.641Z,17.83
2018-10-03T01:37:41.619Z,18.80
2018-10-03T01:38:15.668Z,18.90
2018-10-03T01:38:49.714Z,22.10
2018-10-03T01:39:23.524Z,21.47
2018-10-03T01:39:57.457Z,16.73
2018-10-03T01:40:31.453Z,21.87
2018-10-03T01:41:05.254Z,21.10
2018-10-03T01:41:39.782Z,18.20
2018-10-03T01:42:13.629Z,26.13
2018-10-03T01:42:47.736Z,20.10
2018-10-03T01:43:21.633Z,17.93
2018-10-03T01:43:55.655Z,22.17
2018-10-03T01:44:29.571Z,19.83
2018-10-03T01:45:03.448Z,18.80
2018-10-03T01:45:37.223Z,21.93
2018-10-03T01:46:10.908Z,28.23
2018-10-03T01:46:44.896Z,17.97
2018-10-03T01:47:19.638Z,26.20
2018-10-03T01:47:53.589Z,23.07
2018-10-03T01:48:27.384Z,22.70
2018-10-03T01:49:01.406Z,20.73
2018-10-03T01:49:35.298Z,23.07
2018-10-03T01:50:09.161Z,21.30
2018-10-03T01:50:43.021Z,20.93
2018-10-03T01:51:16.988Z,22.93
2018-10-03T01:51:51.061Z,22.77
2018-10-03T01:52:24.847Z,20.20
2018-10-03T01:52:58.771Z,22.03
2018-10-03T01:53:32.601Z,23.67
2018-10-03T01:54:06.408Z,22.97
2018-10-03T01:54:40.400Z,24.37
2018-10-03T01:55:14.564Z,21.60
2018-10-03T01:55:48.436Z,23.27
2018-10-03T01:56:22.232Z,23.20
2018-10-03T01:56:56.139Z,21.83
2018-10-03T01:57:30.035Z,21.57
2018-10-03T01:58:03.953Z,24.37
2018-10-03T01:58:37.924Z,23.40
2018-10-03T01:59:11.827Z,19.97
2018-10-03T01:59:45.743Z,22.30
2018-10-03T02:00:20.541Z,24.80
2018-10-03T02:00:54.339Z,23.23
2018-10-03T02:01:28.232Z,22.90
2018-10-03T02:02:01.921Z,21.30
2018-10-03T02:02:35.697Z,23.67
2018-10-03T02:03:09.697Z,23.47
2018-10-03T02:03:43.369Z,22.53
2018-10-03T02:04:17.016Z,21.57
2018-10-03T02:04:51.632Z,24.87
2018-10-03T02:05:25.581Z,21.43
2018-10-03T02:05:59.270Z,25.03
2018-10-03T02:06:33.475Z,24.23
2018-10-03T02:07:07.367Z,20.27
2018-10-03T02:07:42.200Z,23.93
2018-10-03T02:08:16.084Z,20.97
2018-10-03T02:08:50.117Z,26.43
2018-10-03T02:09:23.988Z,24.23
2018-10-03T02:09:57.938Z,26.60
2018-10-03T02:10:31.896Z,25.33
2018-10-03T02:11:05.759Z,24.17
2018-10-03T02:11:39.619Z,27.53
2018-10-03T02:12:13.498Z,28.87
2018-10-03T02:12:47.289Z,25.07
2018-10-03T02:13:21.891Z,27.80
2018-10-03T02:13:55.962Z,28.23
2018-10-03T02:14:29.880Z,27.07
2018-10-03T02:15:04.168Z,23.80
2018-10-03T02:15:37.835Z,26.23
2018-10-03T02:16:11.859Z,23.40
2018-10-03T02:16:45.748Z,32.83
2018-10-03T02:17:20.272Z,25.30
2018-10-03T02:17:54.144Z,31.50
2018-10-03T02:18:28.008Z,26.77
2018-10-03T02:19:02.230Z,26.60
2018-10-03T02:19:36.285Z,29.07
2018-10-03T02:20:10.124Z,26.53
2018-10-03T02:20:43.778Z,25.97
2018-10-03T02:21:17.698Z,24.23
2018-10-03T02:21:51.833Z,28.73
2018-10-03T02:22:25.871Z,27.23
2018-10-03T02:22:59.668Z,33.17
2018-10-03T02:23:33.692Z,27.93
2018-10-03T02:24:07.784Z,25.77
2018-10-03T02:24:41.485Z,29.43
2018-10-03T02:25:15.427Z,31.17
2018-10-03T02:25:49.180Z,30.07
2018-10-03T02:26:23.285Z,31.13
2018-10-03T02:26:57.233Z,31.67
2018-10-03T02:27:31.219Z,32.20
2018-10-03T02:28:05.528Z,29.43
2018-10-03T02:28:39.765Z,28.67
2018-10-03T02:29:13.608Z,29.80
2018-10-03T02:29:47.616Z,34.03
2018-10-03T02:30:22.306Z,31.07
2018-10-03T02:30:56.197Z,30.63
2018-10-03T02:31:29.934Z,32.17
2018-10-03T02:32:03.770Z,36.63
2018-10-03T02:32:37.697Z,34.07
2018-10-03T02:33:11.608Z,31.00
2018-10-03T02:33:45.415Z,32.67
2018-10-03T02:34:19.225Z,35.03
2018-10-03T02:34:52.999Z,31.20
2018-10-03T02:35:26.830Z,32.07
2018-10-03T02:36:01.022Z,32.83
2018-10-03T02:36:34.815Z,35.70
2018-10-03T02:37:08.535Z,36.50
2018-10-03T02:37:42.690Z,30.53
2018-10-03T02:38:16.564Z,34.73
2018-10-03T02:38:50.751Z,37.53
2018-10-03T02:39:24.502Z,33.93
2018-10-03T02:39:58.404Z,35.20
2018-10-03T02:40:32.410Z,37.10
2018-10-03T02:41:06.424Z,32.73
2018-10-03T02:41:40.196Z,37.80
2018-10-03T02:42:13.986Z,38.23
2018-10-03T02:42:47.635Z,34.23
2018-10-03T02:43:21.391Z,37.00
2018-10-03T02:43:55.241Z,34.03
2018-10-03T02:44:29.158Z,37.00
2018-10-03T02:45:03.316Z,39.20
2018-10-03T02:45:37.032Z,33.67
2018-10-03T02:46:11.200Z,38.93
2018-10-03T02:46:45.042Z,35.93
2018-10-03T02:47:18.937Z,33.00
2018-10-03T02:47:52.832Z,36.33
2018-10-03T02:48:26.956Z,38.50
2018-10-03T02:49:01.333Z,34.77
2018-10-03T02:49:35.240Z,37.87
2018-10-03T02:50:09.039Z,38.63
2018-10-03T02:50:42.876Z,36.40
2018-10-03T02:51:16.951Z,32.97
2018-10-03T02:51:50.664Z,33.77
2018-10-03T02:52:24.543Z,39.13
2018-10-03T02:52:58.772Z,36.93
2018-10-03T02:53:32.969Z,37.03
2018-10-03T02:54:06.773Z,37.07
2018-10-03T02:54:40.608Z,35.97
2018-10-03T02:55:14.555Z,36.23
2018-10-03T02:55:48.485Z,39.60
2018-10-03T02:56:22.518Z,32.57
2018-10-03T02:56:56.640Z,33.93
2018-10-03T02:57:30.960Z,36.57
2018-10-03T02:58:04.750Z,38.87
2018-10-03T02:58:38.559Z,40.43
2018-10-03T02:59:12.460Z,36.00
2018-10-03T02:59:46.328Z,37.90
2018-10-03T03:00:20.241Z,46.53
2018-10-03T03:00:53.949Z,37.43
2018-10-03T03:01:27.990Z,45.23
2018-10-03T03:02:01.907Z,39.63
2018-10-03T03:02:35.905Z,38.17
2018-10-03T03:03:09.892Z,39.97
2018-10-03T03:03:43.764Z,40.77
2018-10-03T03:04:17.672Z,41.70
2018-10-03T03:04:51.703Z,37.50
2018-10-03T03:05:25.584Z,39.63
2018-10-03T03:05:59.615Z,36.67
2018-10-03T03:06:33.478Z,44.20
2018-10-03T03:07:07.541Z,34.70
2018-10-03T03:07:41.744Z,38.90
2018-10-03T03:08:15.766Z,39.60
2018-10-03T03:08:49.633Z,40.77
2018-10-03T03:09:23.472Z,43.47
2018-10-03T03:09:57.527Z,37.20
2018-10-03T03:10:31.795Z,40.23
2018-10-03T03:11:05.715Z,37.43
2018-10-03T03:11:39.608Z,38.50
2018-10-03T03:12:13.970Z,38.07
2018-10-03T03:12:47.863Z,41.93
2018-10-03T03:13:21.670Z,43.07
2018-10-03T03:13:55.589Z,40.67
2018-10-03T03:14:29.732Z,38.53
2018-10-03T03:15:03.977Z,41.13
2018-10-03T03:15:37.988Z,40.17
2018-10-03T03:16:11.766Z,46.33
2018-10-03T03:16:45.472Z,42.47
2018-10-03T03:17:19.408Z,37.47
2018-10-03T03:17:53.314Z,40.03
2018-10-03T03:18:27.244Z,43.07
2018-10-03T03:19:01.342Z,43.23
2018-10-03T03:19:35.297Z,43.40
2018-10-03T03:20:09.036Z,47.00
2018-10-03T03:20:42.821Z,45.73
2018-10-03T03:21:16.541Z,46.17
2018-10-03T03:21:50.232Z,41.60
2018-10-03T03:22:23.920Z,46.03
2018-10-03T03:22:57.840Z,41.90
2018-10-03T03:23:32.021Z,41.80
2018-10-03T03:24:05.950Z,43.00
2018-10-03T03:24:39.735Z,43.33
2018-10-03T03:25:13.405Z,44.63
2018-10-03T03:25:47.255Z,43.67
2018-10-03T03:26:21.206Z,47.73
2018-10-03T03:26:54.889Z,47.53
2018-10-03T03:27:28.857Z,41.03
2018-10-03T03:28:03.155Z,42.57
2018-10-03T03:28:37.118Z,39.30
2018-10-03T03:29:10.795Z,44.10
2018-10-03T03:29:44.886Z,44.10
2018-10-03T03:30:18.635Z,43.30
2018-10-03T03:30:52.656Z,42.63
2018-10-03T03:31:26.731Z,43.17
2018-10-03T03:32:01.357Z,44.93
2018-10-03T03:32:35.459Z,46.57
2018-10-03T03:33:09.596Z,44.70
2018-10-03T03:33:43.492Z,42.37
2018-10-03T03:34:17.312Z,45.67
2018-10-03T03:34:51.168Z,50.70
2018-10-03T03:35:24.983Z,44.97
2018-10-03T03:35:58.937Z,46.50
2018-10-03T03:36:32.969Z,42.60
2018-10-03T03:37:06.955Z,41.53
2018-10-03T03:37:40.869Z,44.67
2018-10-03T03:38:14.615Z,43.03
2018-10-03T03:38:48.514Z,41.70
2018-10-03T03:39:22.367Z,38.77
2018-10-03T03:39:56.287Z,44.60
2018-10-03T03:40:30.260Z,44.33
2018-10-03T03:41:04.133Z,46.30
2018-10-03T03:41:38.455Z,47.03
2018-10-03T03:42:12.296Z,44.93
2018-10-03T03:42:46.259Z,40.37
2018-10-03T03:43:20.080Z,43.83
2018-10-03T03:43:54.032Z,44.73
2018-10-03T03:44:27.782Z,46.07
2018-10-03T03:45:01.556Z,44.17
2018-10-03T03:45:35.717Z,39.43
2018-10-03T03:46:09.556Z,42.53
2018-10-03T03:46:43.409Z,41.80
2018-10-03T03:47:17.125Z,41.27
2018-10-03T03:47:51.085Z,48.57
2018-10-03T03:48:24.768Z,46.70
2018-10-03T03:48:58.394Z,44.80
2018-10-03T03:49:32.298Z,44.57
2018-10-03T03:50:06.296Z,47.43
2018-10-03T03:50:40.059Z,41.73
2018-10-03T03:51:14.070Z,45.53
2018-10-03T03:51:48.053Z,50.03
2018-10-03T03:52:21.765Z,45.27
2018-10-03T03:52:55.640Z,43.47
2018-10-03T03:53:29.555Z,48.70
2018-10-03T03:54:03.441Z,41.53
2018-10-03T03:54:37.281Z,43.67
2018-10-03T03:55:11.065Z,44.20
2018-10-03T03:55:44.876Z,47.20
2018-10-03T03:56:18.729Z,43.70
2018-10-03T03:56:52.523Z,43.03
2018-10-03T03:57:26.524Z,46.87
2018-10-03T03:58:00.380Z,46.40
2018-10-03T03:58:34.356Z,43.50
2018-10-03T03:59:08.369Z,43.30
2018-10-03T03:59:42.164Z,43.70
2018-10-03T04:00:16.137Z,40.70
2018-10-03T04:00:49.983Z,50.60
2018-10-03T04:01:23.907Z,41.37
2018-10-03T04:01:58.002Z,46.57
2018-10-03T04:02:31.810Z,41.80
2018-10-03T04:03:05.484Z,45.10
2018-10-03T04:03:39.363Z,47.27
2018-10-03T04:04:13.232Z,42.43
2018-10-03T04:04:47.086Z,47.40
2018-10-03T04:05:20.902Z,49.80
2018-10-03T04:05:54.676Z,43.57
2018-10-03T04:06:28.549Z,49.63
2018-10-03T04:07:02.524Z,45.90
2018-10-03T04:07:36.505Z,42.03
2018-10-03T04:08:10.811Z,44.43
2018-10-03T04:08:44.855Z,45.17
2018-10-03T04:09:18.638Z,40.03
2018-10-03T04:09:52.533Z,51.53
2018-10-03T04:10:26.322Z,41.43
2018-10-03T04:11:00.113Z,42.30
2018-10-03T04:11:34.081Z,41.50
2018-10-03T04:12:08.677Z,40.07
2018-10-03T04:12:42.454Z,43.20
2018-10-03T04:13:16.463Z,38.33
2018-10-03T04:13:50.348Z,44.07
2018-10-03T04:14:24.145Z,45.07
2018-10-03T04:14:57.999Z,42.97
2018-10-03T04:15:31.763Z,39.00
2018-10-03T04:16:05.388Z,49.00
2018-10-03T04:16:39.161Z,47.43
2018-10-03T04:17:13.134Z,41.97
2018-10-03T04:17:47.176Z,44.47
2018-10-03T04:18:20.925Z,43.00
2018-10-03T04:18:54.838Z,48.10
2018-10-03T04:19:28.619Z,45.40
2018-10-03T04:20:02.673Z,38.53
2018-10-03T04:20:36.405Z,45.73
2018-10-03T04:21:10.216Z,40.73
2018-10-03T04:21:44.258Z,46.27
2018-10-03T04:22:18.174Z,49.80
2018-10-03T04:22:51.952Z,45.17
2018-10-03T04:23:25.885Z,48.13
2018-10-03T04:23:59.807Z,48.07
2018-10-03T04:24:33.796Z,49.03
2018-10-03T04:25:08.181Z,43.30
2018-10-03T04:25:42.160Z,38.90
2018-10-03T04:26:16.020Z,44.00
2018-10-03T04:26:49.971Z,46.17
2018-10-03T04:27:23.883Z,41.60
2018-10-03T04:27:57.880Z,42.10
2018-10-03T04:28:31.615Z,41.40
2018-10-03T04:29:05.878Z,40.97
2018-10-03T04:29:39.715Z,40.50
2018-10-03T04:30:13.750Z,43.47
2018-10-03T04:30:47.753Z,46.93
2018-10-03T04:31:21.537Z,38.73
2018-10-03T04:31:55.741Z,42.77
2018-10-03T04:32:30.133Z,39.73
2018-10-03T04:33:04.132Z,39.57
2018-10-03T04:33:38.010Z,42.80
2018-10-03T04:34:11.808Z,36.77
2018-10-03T04:34:45.896Z,43.57
2018-10-03T04:35:19.934Z,45.60
2018-10-03T04:35:53.653Z,37.23
2018-10-03T04:36:27.614Z,38.23
2018-10-03T04:37:01.472Z,36.63
2018-10-03T04:37:35.500Z,38.00
2018-10-03T04:38:09.423Z,37.17
2018-10-03T04:38:43.412Z,32.30
2018-10-03T04:39:17.048Z,37.90
2018-10-03T04:39:51.176Z,35.00
2018-10-03T04:40:25.096Z,38.70
2018-10-03T04:40:58.935Z,34.10
2018-10-03T04:41:33.266Z,34.47
2018-10-03T04:42:07.121Z,33.83
2018-10-03T04:42:40.816Z,38.17
2018-10-03T04:43:14.796Z,35.67
2018-10-03T04:43:49.085Z,35.60
2018-10-03T04:44:22.929Z,33.90
2018-10-03T04:44:56.756Z,33.93
2018-10-03T04:45:30.639Z,31.77
2018-10-03T04:46:04.630Z,38.90
2018-10-03T04:46:38.471Z,37.53
2018-10-03T04:47:12.345Z,34.83
2018-10-03T04:47:46.392Z,35.03
2018-10-03T04:48:20.416Z,32.67
2018-10-03T04:48:54.446Z,34.30
2018-10-03T04:49:28.387Z,35.20
2018-10-03T04:50:02.376Z,31.23
2018-10-03T04:50:36.225Z,36.50
2018-10-03T04:51:10.100Z,38.83
2018-10-03T04:51:44.077Z,35.00
2018-10-03T04:52:18.014Z,31.80
2018-10-03T04:52:51.914Z,38.47
2018-10-03T04:53:25.741Z,33.77
2018-10-03T04:53:59.608Z,35.73
2018-10-03T04:54:33.669Z,32.47
2018-10-03T04:55:07.391Z,34.30
2018-10-03T04:55:41.268Z,32.47
2018-10-03T04:56:15.016Z,37.37
2018-10-03T04:56:49.022Z,37.70
2018-10-03T04:57:23.025Z,31.43
2018-10-03T04:57:56.804Z,37.30
2018-10-03T04:58:31.817Z,32.70
2018-10-03T04:59:05.856Z,33.20
2018-10-03T04:59:39.615Z,39.77
2018-10-03T05:00:13.464Z,37.60
2018-10-03T05:00:47.378Z,28.97
2018-10-03T05:01:21.328Z,36.20
2018-10-03T05:01:55.091Z,32.00
2018-10-03T05:02:29.184Z,35.20
2018-10-03T05:03:02.932Z,31.87
2018-10-03T05:03:37.101Z,34.97
2018-10-03T05:04:10.939Z,35.13
2018-10-03T05:04:44.960Z,40.27
2018-10-03T05:05:18.949Z,31.87
2018-10-03T05:05:53.093Z,29.13
2018-10-03T05:06:26.844Z,33.70
2018-10-03T05:07:00.807Z,34.30
2018-10-03T05:07:34.807Z,27.53
2018-10-03T05:08:08.797Z,29.77
2018-10-03T05:08:42.784Z,30.90
2018-10-03T05:09:16.795Z,28.97
2018-10-03T05:09:50.733Z,30.17
2018-10-03T05:10:24.576Z,30.43
2018-10-03T05:10:58.324Z,30.03
2018-10-03T05:11:32.239Z,31.87
2018-10-03T05:12:06.540Z,28.83
2018-10-03T05:12:40.250Z,32.70
2018-10-03T05:13:14.026Z,29.27
2018-10-03T05:13:47.745Z,33.37
2018-10-03T05:14:21.860Z,32.47
2018-10-03T05:14:55.637Z,37.87
2018-10-03T05:15:29.575Z,34.10
2018-10-03T05:16:03.304Z,30.63
2018-10-03T05:16:37.188Z,32.10
2018-10-03T05:17:11.003Z,29.53
2018-10-03T05:17:44.941Z,32.70
2018-10-03T05:18:18.855Z,24.57
2018-10-03T05:18:53.263Z,32.17
2018-10-03T05:19:27.144Z,32.87
2018-10-03T05:20:01.010Z,31.33
2018-10-03T05:20:35.121Z,26.97
2018-10-03T05:21:09.089Z,31.40
2018-10-03T05:21:42.911Z,31.87
2018-10-03T05:22:16.942Z,28.23
2018-10-03T05:22:51.040Z,27.10
2018-10-03T05:23:25.054Z,27.00
2018-10-03T05:23:58.878Z,31.27
2018-10-03T05:24:32.919Z,25.60
2018-10-03T05:25:06.685Z,28.00
2018-10-03T05:25:40.744Z,25.47
2018-10-03T05:26:14.541Z,26.20
2018-10-03T05:26:48.450Z,27.37
2018-10-03T05:27:22.330Z,27.90
2018-10-03T05:27:56.194Z,29.10
2018-10-03T05:28:30.392Z,25.97
2018-10-03T05:29:04.420Z,29.83
2018-10-03T05:29:38.225Z,30.53
2018-10-03T05:30:11.989Z,25.53
2018-10-03T05:30:45.887Z,26.20
2018-10-03T05:31:19.914Z,26.17
2018-10-03T05:31:54.028Z,30.33
2018-10-03T05:32:27.825Z,27.30
2018-10-03T05:33:01.720Z,25.73
2018-10-03T05:33:36.192Z,26.87
2018-10-03T05:34:10.104Z,29.53
2018-10-03T05:34:43.883Z,25.30
2018-10-03T05:35:17.536Z,23.80
2018-10-03T05:35:51.381Z,33.33
2018-10-03T05:36:25.244Z,27.77
2018-10-03T05:36:59.351Z,31.00
2018-10-03T05:37:33.216Z,25.13
2018-10-03T05:38:07.112Z,25.33
2018-10-03T05:38:41.126Z,26.27
2018-10-03T05:39:15.015Z,34.20
2018-10-03T05:39:48.786Z,25.17
2018-10-03T05:40:22.599Z,25.30
2018-10-03T05:40:56.445Z,26.03
2018-10-03T05:41:30.245Z,28.33
2018-10-03T05:42:04.159Z,30.13
2018-10-03T05:42:38.083Z,25.43
2018-10-03T05:43:11.888Z,27.00
2018-10-03T05:43:45.848Z,26.43
2018-10-03T05:44:19.736Z,27.07
2018-10-03T05:44:53.640Z,30.10
2018-10-03T05:45:27.724Z,24.37
2018-10-03T05:46:01.757Z,30.87
2018-10-03T05:46:35.655Z,27.50
2018-10-03T05:47:09.542Z,25.90
2018-10-03T05:47:43.272Z,25.97
2018-10-03T05:48:17.412Z,26.57
2018-10-03T05:48:51.133Z,25.60
2018-10-03T05:49:25.196Z,24.60
2018-10-03T05:49:59.110Z,28.03
2018-10-03T05:50:32.809Z,27.20
2018-10-03T05:51:06.744Z,26.27
2018-10-03T05:51:40.604Z,25.50
2018-10-03T05:52:14.636Z,23.70
2018-10-03T05:52:48.567Z,27.53
2018-10-03T05:53:22.319Z,24.90
2018-10-03T05:53:56.609Z,25.30
2018-10-03T05:54:30.438Z,26.50
2018-10-03T05:55:05.029Z,21.53
2018-10-03T05:55:39.149Z,30.50
2018-10-03T05:56:12.902Z,28.03
2018-10-03T05:56:46.617Z,25.43
2018-10-03T05:57:20.272Z,27.17
2018-10-03T05:57:54.058Z,26.63
2018-10-03T05:58:28.024Z,26.33
2018-10-03T05:59:01.882Z,21.63
2018-10-03T05:59:35.947Z,27.93
2018-10-03T06:00:09.962Z,29.77
2018-10-03T06:00:43.750Z,23.53
2018-10-03T06:01:17.777Z,26.47
2018-10-03T06:01:51.555Z,23.67
2018-10-03T06:02:25.466Z,24.67
2018-10-03T06:02:59.835Z,25.20
2018-10-03T06:03:33.687Z,24.40
2018-10-03T06:04:07.628Z,24.83
2018-10-03T06:04:41.433Z,30.40
2018-10-03T06:05:15.410Z,23.37
2018-10-03T06:05:49.176Z,27.20
2018-10-03T06:06:23.061Z,25.90
2018-10-03T06:06:57.056Z,24.50
2018-10-03T06:07:31.305Z,20.30
2018-10-03T06:08:11.005Z,23.80
2018-10-03T06:08:54.159Z,26.63
2018-10-03T06:09:34.889Z,27.50
2018-10-03T06:10:08.811Z,21.75
2018-10-03T06:10:42.535Z,24.03
2018-10-03T06:11:18.402Z,21.97
2018-10-03T06:11:52.439Z,28.40
2018-10-03T06:12:26.351Z,21.83
2018-10-03T06:13:00.751Z,20.77
2018-10-03T06:13:34.648Z,24.40
2018-10-03T06:14:08.811Z,27.13
2018-10-03T06:14:42.607Z,26.20
2018-10-03T06:15:16.453Z,22.73
2018-10-03T06:15:50.534Z,22.63
2018-10-03T06:16:24.548Z,31.70
2018-10-03T06:16:59.422Z,23.03
2018-10-03T06:17:33.503Z,24.00
2018-10-03T06:18:07.822Z,20.57
2018-10-03T06:18:41.986Z,21.17
2018-10-03T06:19:15.540Z,23.90
2018-10-03T06:19:49.582Z,23.97
2018-10-03T06:20:23.360Z,21.90
2018-10-03T06:21:57.115Z,23.67
2018-10-03T06:22:31.309Z,20.30
2018-10-03T06:23:05.532Z,21.97
2018-10-03T06:23:39.736Z,23.20
2018-10-03T06:24:14.016Z,17.95
2018-10-03T06:24:48.184Z,19.07
2018-10-03T06:25:22.345Z,26.80
2018-10-03T06:25:56.488Z,23.00
2018-10-03T06:26:30.742Z,23.60
2018-10-03T06:27:04.783Z,25.90
2018-10-03T06:27:38.891Z,28.73
2018-10-03T06:28:12.543Z,23.53
2018-10-03T06:28:46.464Z,25.27
2018-10-03T06:29:20.610Z,20.88
2018-10-03T06:29:54.521Z,25.53
2018-10-03T06:30:28.487Z,20.43
2018-10-03T06:31:02.613Z,23.70
2018-10-03T06:31:36.475Z,20.43
2018-10-03T06:32:10.350Z,25.90
2018-10-03T06:32:44.313Z,28.70
2018-10-03T06:33:18.108Z,24.70
2018-10-03T06:33:51.956Z,22.13
2018-10-03T06:34:25.741Z,24.70
2018-10-03T06:34:59.476Z,19.97
2018-10-03T06:35:33.840Z,22.97
2018-10-03T06:36:08.035Z,19.13
2018-10-03T06:36:41.890Z,23.77
2018-10-03T06:37:15.707Z,20.90
2018-10-03T06:37:49.902Z,26.47
2018-10-03T06:38:23.900Z,22.20
2018-10-03T06:38:57.592Z,25.40
2018-10-03T06:39:31.665Z,22.60
2018-10-03T06:40:06.608Z,22.93
2018-10-03T06:40:40.432Z,22.87
2018-10-03T06:42:17.771Z,27.60
2018-10-03T06:42:51.860Z,23.67
2018-10-03T06:43:25.787Z,23.90
2018-10-03T06:43:59.553Z,28.10
2018-10-03T06:44:33.839Z,20.00
2018-10-03T06:45:07.840Z,21.00
2018-10-03T06:45:42.277Z,23.13
2018-10-03T06:46:16.012Z,21.73
2018-10-03T06:46:49.682Z,23.13
2018-10-03T06:47:23.680Z,21.77
2018-10-03T06:47:57.781Z,22.83
2018-10-03T06:48:31.785Z,26.93
2018-10-03T06:49:05.531Z,21.73
2018-10-03T06:49:39.746Z,23.07
2018-10-03T06:50:13.563Z,20.77
2018-10-03T06:50:47.650Z,21.43
2018-10-03T06:51:21.432Z,28.47
2018-10-03T06:51:55.328Z,18.30
2018-10-03T06:52:29.128Z,23.73
2018-10-03T06:53:03.074Z,25.53
2018-10-03T06:53:38.416Z,24.10
2018-10-03T06:54:12.676Z,25.00
2018-10-03T06:54:46.353Z,20.57
2018-10-03T06:55:20.354Z,19.97
2018-10-03T06:55:54.203Z,19.27
2018-10-03T06:56:28.242Z,17.23
2018-10-03T06:57:01.971Z,22.50
2018-10-03T06:57:36.093Z,25.13
2018-10-03T06:58:10.086Z,21.17
2018-10-03T06:58:44.028Z,25.00
2018-10-03T06:59:17.905Z,22.83
2018-10-03T06:59:51.846Z,24.30
2018-10-03T07:00:25.912Z,23.77
2018-10-03T07:00:59.791Z,23.03
2018-10-03T07:01:33.739Z,26.40
2018-10-03T07:02:07.812Z,26.60
2018-10-03T07:02:41.677Z,26.40
2018-10-03T07:03:15.603Z,35.93
2018-10-03T07:03:49.403Z,45.63
2018-10-03T07:04:23.588Z,43.30
2018-10-03T07:04:57.566Z,28.63
2018-10-03T07:05:31.336Z,23.70
2018-10-03T07:06:05.148Z,21.37
2018-10-03T07:06:39.057Z,25.07
2018-10-03T07:07:12.956Z,21.10
2018-10-03T07:07:46.737Z,23.67
2018-10-03T07:08:20.884Z,23.40
2018-10-03T07:08:54.845Z,24.30
2018-10-03T07:09:28.688Z,15.93
2018-10-03T07:10:02.724Z,21.53
2018-10-03T07:10:36.864Z,19.47
2018-10-03T07:11:11.166Z,19.23
2018-10-03T07:11:46.208Z,25.27
2018-10-03T07:12:20.239Z,22.50
2018-10-03T07:12:54.200Z,17.60
2018-10-03T07:13:28.158Z,25.23
2018-10-03T07:14:02.164Z,22.40
2018-10-03T07:14:35.892Z,20.50
2018-10-03T07:15:09.850Z,22.37
2018-10-03T07:15:44.252Z,17.70
2018-10-03T07:16:18.797Z,17.37
2018-10-03T07:16:52.651Z,18.43
2018-10-03T07:17:26.682Z,27.20
2018-10-03T07:18:00.558Z,21.30
2018-10-03T07:18:34.844Z,22.23
2018-10-03T07:19:09.034Z,22.00
2018-10-03T07:19:43.031Z,19.73